Coolidge, KS

7:56 PM MDT on May 24, 2015 (GMT -0600)
Lamar Municipal | | Change Station
CLOSE
Current Station
Airport
Location: Lamar,
Elevation: 3704 ft
Nearby Weather Stations

Elev 3704 ft 38.07 °N, 102.69 °W | Updated 1 hour ago

Thunderstorm
Thunderstorm
57 °F
Feels Like 57 °F
N
6
Wind Variable Wind from WNW

Today
High -- | Low -- °F
--% Chance of Precip.
Yesterday
High -- | Low -- °F
Precip. -- in
5:31 AM 7:59 PM
Waxing Crescent, 44% visible
Pressure 29.65 in
Visibility 8.0 miles
Clouds Few 11000 ft
Dew Point 54 °F
Humidity 89%
Rainfall 0.42 in
Snow Depth Not available.
UV 1 out of 12
Pollen 7.90 out of 12
Air Quality Not available.
Flu Activity No Activity
METAR KLAA 250053Z AUTO 29005KT 8SM FEW110 14/12 A2973 RMK AO2 RAB2358E22 SLP038 P0001 T01390122 TSNO

More Conditions Fewer Conditions

Pressure 29.65 in
Visibility 8.0 miles
Clouds Few 11000 ft
Dew Point 54 °F
Humidity 89%
Rainfall 0.42 in
Snow Depth Not available.
UV 1 out of 12
Pollen 7.90 out of 12
Air Quality Not available.
Flu Activity No Activity
METAR KLAA 250053Z AUTO 29005KT 8SM FEW110 14/12 A2973 RMK AO2 RAB2358E22 SLP038 P0001 T01390122 TSNO

More Conditions Fewer Conditions

10-Day Weather Forecast

Almanac

Astronomy

May. 24, 2015 Rise Set
Actual Time
Civil Twilight
Nautical Twilight
Astronomical Twilight
Moon
Length of Visible Light
Length of Day
Tomorrow will be .
, % of the Moon is Illuminated

Today's Extremes

State Highs State Lows

Community

WunderPhotos

Upload Photos

1,823,918 photos uploaded!

WunderBlogs® & News

Nearby

Air Quality

  Air Quality AQ Index Pollutant
Not available.

Snow Depth

Station Depth Elevation

Earthquake Activity

City Distance Mag. Time & Date
Minimum magnitude displayed is 2.5.

Coastal Water Temperatures

Place Temperature

Stations

Nearby Weather Stations

Station Location Temp. Windchill Dew Point Humidity Wind Precip. Elev Updated Type